Time;durP1;ratioP1;P1;durP2;ratioP2;P2;SDS_P1;SDS_P2;PMS_P1;PMS_P2;Temp;Humidity;BMP_temperature;BMP_pressure;BME280_temperature;BME280_humidity;BME280_pressure;Samples;Min_cycle;Max_cycle;Signal;HPM_P1;HPM_P2
2023/09/20 03:03:07;;;;;;;1.20;0.65;;;22.60;54.70;;;;;;4939182;28;46599;-82
2023/09/20 03:05:34;;;;;;;1.20;0.88;;;22.60;54.80;;;;;;4935144;28;45314;-81
2023/09/20 03:08:17;;;;;;;1.58;1.13;;;22.70;54.80;;;;;;4944462;28;45594;-86
2023/09/20 03:10:42;;;;;;;0.90;0.70;;;22.70;54.60;;;;;;4922464;28;45472;-82
2023/09/20 03:13:11;;;;;;;1.90;1.00;;;22.70;54.80;;;;;;4923028;28;46537;-83
2023/09/20 03:15:43;;;;;;;1.42;0.82;;;22.60;54.70;;;;;;4932650;28;45719;-81
2023/09/20 03:18:09;;;;;;;0.88;0.77;;;22.70;54.80;;;;;;4940482;28;45246;-82
2023/09/20 03:20:35;;;;;;;2.42;0.77;;;22.70;54.80;;;;;;4928839;28;45738;-81
2023/09/20 03:23:05;;;;;;;0.90;0.55;;;22.60;54.70;;;;;;4939223;28;48461;-85
2023/09/20 03:25:36;;;;;;;1.23;0.80;;;22.70;54.70;;;;;;4911721;28;45559;-83
2023/09/20 03:28:07;;;;;;;1.38;0.93;;;22.70;54.70;;;;;;4941942;28;45657;-80
2023/09/20 03:30:34;;;;;;;0.93;0.57;;;22.60;54.60;;;;;;4937528;28;45394;-82
2023/09/20 03:33:00;;;;;;;2.10;0.90;;;22.70;54.70;;;;;;4937374;28;46811;-81
2023/09/20 03:35:25;;;;;;;1.38;1.08;;;22.60;54.70;;;;;;4937738;28;45643;-81
2023/09/20 03:37:52;;;;;;;0.60;0.60;;;22.70;54.70;;;;;;4944045;28;45544;-83
2023/09/20 03:40:19;;;;;;;1.77;0.80;;;22.60;54.60;;;;;;4938072;28;45613;-80
2023/09/20 03:42:46;;;;;;;0.98;0.80;;;22.70;54.60;;;;;;4944701;28;45644;-82
2023/09/20 03:45:30;;;;;;;0.75;0.63;;;22.60;54.60;;;;;;4930668;28;45478;-82
2023/09/20 03:48:01;;;;;;;1.10;0.80;;;22.60;54.60;;;;;;4904623;28;45206;-83
2023/09/20 03:50:30;;;;;;;1.25;0.80;;;22.60;54.60;;;;;;4943785;28;44811;-81
2023/09/20 03:52:55;;;;;;;1.40;0.93;;;22.60;54.60;;;;;;4908416;28;46301;-81
2023/09/20 03:55:23;;;;;;;0.85;0.70;;;22.60;54.60;;;;;;4937129;28;45715;-81
2023/09/20 03:57:51;;;;;;;0.90;0.70;;;22.60;54.60;;;;;;4939681;28;45306;-80
2023/09/20 04:00:18;;;;;;;1.40;0.73;;;22.60;54.50;;;;;;4942071;28;45178;-86
2023/09/20 04:02:48;;;;;;;2.13;0.70;;;22.60;54.60;;;;;;4928238;28;45796;-84
2023/09/20 04:05:15;;;;;;;1.70;0.80;;;22.60;54.50;;;;;;4933608;28;45225;-82
2023/09/20 04:07:41;;;;;;;1.13;0.80;;;22.60;54.50;;;;;;4927091;28;45242;-81
2023/09/20 04:10:08;;;;;;;2.22;0.75;;;22.60;54.50;;;;;;4938588;28;45532;-85
2023/09/20 04:12:35;;;;;;;1.90;0.98;;;22.60;54.60;;;;;;4909064;28;46737;-81
2023/09/20 04:15:05;;;;;;;1.17;0.70;;;22.60;54.50;;;;;;4920806;28;45193;-81
2023/09/20 04:17:35;;;;;;;0.77;0.70;;;22.60;54.50;;;;;;4908940;28;45047;-82
2023/09/20 04:20:05;;;;;;;1.27;0.95;;;22.60;54.50;;;;;;4921981;28;45441;-83
2023/09/20 04:22:31;;;;;;;1.17;0.90;;;22.70;54.50;;;;;;4935986;28;45757;-82
2023/09/20 04:24:59;;;;;;;2.08;0.90;;;22.60;54.50;;;;;;4937147;28;45307;-85
2023/09/20 04:27:25;;;;;;;1.15;0.80;;;22.60;54.40;;;;;;4938159;28;44911;-81
2023/09/20 04:29:52;;;;;;;1.00;0.73;;;22.60;54.40;;;;;;4941217;28;45496;-83
2023/09/20 04:32:18;;;;;;;1.00;0.80;;;22.60;54.40;;;;;;4921328;28;46475;-86
2023/09/20 04:34:45;;;;;;;1.77;0.93;;;22.60;54.40;;;;;;4938556;28;44743;-81
2023/09/20 04:37:13;;;;;;;1.08;0.90;;;22.60;54.40;;;;;;4919030;28;45221;-83
2023/09/20 04:39:39;;;;;;;0.98;0.70;;;22.60;54.40;;;;;;4926613;28;45777;-85
2023/09/20 04:42:12;;;;;;;0.80;0.70;;;22.60;54.70;;;;;;4937754;28;45648;-81
2023/09/20 04:44:41;;;;;;;1.08;0.73;;;22.60;54.40;;;;;;4941069;28;45379;-88
2023/09/20 04:47:07;;;;;;;1.88;0.98;;;22.60;54.40;;;;;;4933560;28;45118;-82
2023/09/20 04:49:34;;;;;;;1.75;0.77;;;22.60;54.40;;;;;;4924483;28;45007;-82
2023/09/20 04:52:00;;;;;;;1.45;0.93;;;22.60;54.30;;;;;;4937056;28;46084;-80
2023/09/20 04:54:27;;;;;;;1.60;1.00;;;22.60;54.40;;;;;;4929794;28;45308;-81
2023/09/20 04:56:53;;;;;;;1.40;0.80;;;22.60;54.30;;;;;;4923044;28;45290;-81
2023/09/20 04:59:19;;;;;;;0.98;0.70;;;22.60;54.30;;;;;;4921015;28;45277;-80
2023/09/20 05:01:51;;;;;;;1.05;0.80;;;22.60;54.30;;;;;;4930084;28;45909;-87
2023/09/20 05:04:19;;;;;;;1.05;0.80;;;22.60;54.20;;;;;;4925113;28;45612;-85
2023/09/20 05:06:46;;;;;;;1.05;0.73;;;22.60;54.30;;;;;;4933548;28;45250;-85
2023/09/20 05:09:14;;;;;;;1.77;1.10;;;22.60;54.30;;;;;;4967595;28;45304;-85
2023/09/20 05:11:42;;;;;;;1.33;0.98;;;22.60;54.90;;;;;;4956041;28;45508;-80
2023/09/20 05:14:08;;;;;;;2.88;1.00;;;22.60;54.30;;;;;;4941624;28;45014;-79
2023/09/20 05:16:34;;;;;;;1.60;0.90;;;22.60;54.30;;;;;;4952846;28;44998;-81
2023/09/20 05:19:00;;;;;;;1.52;0.77;;;22.50;54.20;;;;;;4946625;28;45547;-82
2023/09/20 05:21:26;;;;;;;0.80;0.70;;;22.60;54.30;;;;;;4958600;28;45911;-82
2023/09/20 05:23:52;;;;;;;1.40;0.85;;;22.60;54.30;;;;;;4955634;28;45790;-80
2023/09/20 05:26:18;;;;;;;2.35;1.08;;;22.60;54.30;;;;;;4924120;28;45758;-83
2023/09/20 05:28:44;;;;;;;1.60;1.15;;;22.50;54.20;;;;;;4930360;28;45253;-82
2023/09/20 05:31:10;;;;;;;2.83;1.10;;;22.50;54.20;;;;;;4951860;28;45526;-81
2023/09/20 05:33:35;;;;;;;2.38;0.77;;;22.60;54.30;;;;;;4941554;28;44980;-84
2023/09/20 05:36:01;;;;;;;1.65;1.02;;;22.50;54.20;;;;;;4953724;28;45699;-81
2023/09/20 05:38:27;;;;;;;4.05;0.85;;;22.50;54.30;;;;;;4959032;28;45306;-81
2023/09/20 05:40:53;;;;;;;1.30;0.80;;;22.50;54.20;;;;;;4948886;28;45908;-82
2023/09/20 05:43:19;;;;;;;0.90;0.82;;;22.50;54.20;;;;;;4933333;28;45494;-82
2023/09/20 05:45:44;;;;;;;1.67;0.90;;;22.50;54.20;;;;;;4945664;28;45306;-85
2023/09/20 05:48:10;;;;;;;1.65;1.00;;;22.50;54.20;;;;;;4938706;28;44887;-83
2023/09/20 05:50:36;;;;;;;1.42;0.88;;;22.50;54.20;;;;;;4952500;28;45567;-82
2023/09/20 05:53:04;;;;;;;0.98;0.80;;;22.50;54.20;;;;;;4938025;28;45361;-82
2023/09/20 05:55:34;;;;;;;1.65;1.17;;;22.50;54.20;;;;;;4948876;28;45656;-80
2023/09/20 05:58:02;;;;;;;2.72;1.10;;;22.50;54.20;;;;;;4956059;28;45366;-81
2023/09/20 06:00:29;;;;;;;0.70;0.70;;;22.50;54.20;;;;;;4937937;28;46463;-87
2023/09/20 06:03:16;;;;;;;1.00;0.90;;;22.50;54.20;;;;;;4938339;28;45081;-82
2023/09/20 06:05:42;;;;;;;1.63;1.10;;;22.50;54.20;;;;;;4907738;28;45974;-81
2023/09/20 06:08:11;;;;;;;2.75;0.90;;;22.50;54.20;;;;;;4941609;28;45404;-80
2023/09/20 06:10:37;;;;;;;1.77;1.05;;;22.50;54.20;;;;;;4931651;28;45465;-85
2023/09/20 06:13:06;;;;;;;1.55;1.20;;;22.50;54.20;;;;;;4936578;28;45365;-84
2023/09/20 06:15:33;;;;;;;1.90;1.00;;;22.50;54.10;;;;;;4920243;28;45264;-82
2023/09/20 06:17:59;;;;;;;2.20;1.20;;;22.50;54.10;;;;;;4923335;28;44982;-80
2023/09/20 06:20:25;;;;;;;2.92;1.23;;;22.50;54.20;;;;;;4935731;28;46038;-80
2023/09/20 06:22:51;;;;;;;1.77;1.08;;;22.50;54.10;;;;;;4920204;28;45030;-82
2023/09/20 06:25:19;;;;;;;1.90;1.45;;;22.50;54.10;;;;;;4924376;28;45087;-81
2023/09/20 06:27:44;;;;;;;1.90;1.15;;;22.50;54.10;;;;;;4917912;28;45317;-81
2023/09/20 06:30:13;;;;;;;3.65;1.27;;;22.50;54.20;;;;;;4915761;28;46037;-81
2023/09/20 06:32:44;;;;;;;1.48;0.90;;;22.50;54.10;;;;;;4918787;28;45203;-81
2023/09/20 06:35:10;;;;;;;1.48;1.08;;;22.50;54.10;;;;;;4936582;28;44986;-82
2023/09/20 06:37:38;;;;;;;3.05;1.60;;;22.50;54.10;;;;;;4920012;28;45539;-82
2023/09/20 06:40:12;;;;;;;1.67;1.20;;;22.50;54.10;;;;;;4915957;28;46310;-83
2023/09/20 06:42:38;;;;;;;1.25;1.05;;;22.50;54.20;;;;;;4935608;28;45726;-83
2023/09/20 06:45:08;;;;;;;1.58;1.10;;;22.50;54.20;;;;;;4932222;28;45543;-87
2023/09/20 06:47:34;;;;;;;2.63;1.25;;;22.50;54.10;;;;;;4933338;28;44939;-82
2023/09/20 06:50:03;;;;;;;1.73;1.00;;;22.50;54.10;;;;;;4925736;28;46054;-80
2023/09/20 06:52:30;;;;;;;1.95;1.23;;;22.50;54.10;;;;;;4922392;28;45453;-81
2023/09/20 06:54:56;;;;;;;2.22;1.27;;;22.50;54.10;;;;;;4925474;28;45392;-81
2023/09/20 06:57:22;;;;;;;2.97;1.50;;;22.50;54.20;;;;;;4935734;28;45398;-82
2023/09/20 06:59:51;;;;;;;3.70;1.27;;;22.50;54.40;;;;;;4914080;28;45959;-81
2023/09/20 07:02:20;;;;;;;2.13;1.33;;;22.50;54.10;;;;;;4946029;28;45407;-82
2023/09/20 07:04:48;;;;;;;2.05;1.27;;;22.50;54.10;;;;;;4941721;28;45039;-83
2023/09/20 07:07:14;;;;;;;2.38;1.30;;;22.50;54.10;;;;;;4950622;28;45677;-82
2023/09/20 07:09:40;;;;;;;2.40;1.23;;;22.50;54.10;;;;;;4962357;28;46259;-80
2023/09/20 07:12:06;;;;;;;2.42;1.30;;;22.50;54.10;;;;;;4940148;28;45055;-82
2023/09/20 07:14:32;;;;;;;1.52;1.00;;;22.50;54.10;;;;;;4962626;28;45180;-81
2023/09/20 07:17:00;;;;;;;2.60;1.10;;;22.50;54.10;;;;;;4953452;28;45362;-82
2023/09/20 07:19:28;;;;;;;1.90;1.10;;;22.50;54.10;;;;;;4911161;28;47398;-82
2023/09/20 07:21:56;;;;;;;2.28;1.10;;;22.50;54.10;;;;;;4939340;28;45550;-81
2023/09/20 07:24:26;;;;;;;3.00;1.35;;;22.50;54.10;;;;;;4942380;28;45471;-82
2023/09/20 07:26:52;;;;;;;1.13;0.90;;;22.50;54.10;;;;;;4942757;28;45280;-81
2023/09/20 07:29:18;;;;;;;1.90;1.10;;;22.50;54.10;;;;;;4960652;28;47102;-80
2023/09/20 07:31:45;;;;;;;2.25;1.23;;;22.50;54.10;;;;;;4957411;28;45463;-85
2023/09/20 07:34:12;;;;;;;2.47;1.20;;;22.50;54.10;;;;;;4954164;28;45537;-82
2023/09/20 07:36:43;;;;;;;2.08;1.30;;;22.50;54.10;;;;;;4939433;28;45466;-85
2023/09/20 07:39:17;;;;;;;2.28;1.27;;;22.50;54.10;;;;;;4938804;28;46388;-80
2023/09/20 07:41:50;;;;;;;2.40;1.13;;;22.50;54.00;;;;;;4938459;28;45177;-81
2023/09/20 07:44:23;;;;;;;1.47;1.17;;;22.40;54.00;;;;;;4923629;28;45230;-82
2023/09/20 07:46:49;;;;;;;1.58;1.13;;;22.40;54.00;;;;;;4936747;28;45608;-86
2023/09/20 07:49:17;;;;;;;2.50;1.23;;;22.50;54.10;;;;;;4959367;28;46386;-81
2023/09/20 07:51:43;;;;;;;1.45;0.90;;;22.40;54.10;;;;;;4960559;28;45356;-80
2023/09/20 07:54:09;;;;;;;4.28;1.27;;;22.40;54.00;;;;;;4960706;28;45383;-81
2023/09/20 07:56:36;;;;;;;1.17;0.88;;;22.40;54.00;;;;;;4958495;28;45628;-81
2023/09/20 07:59:04;;;;;;;2.47;1.20;;;22.50;54.10;;;;;;4955576;28;46115;-80
2023/09/20 08:01:53;;;;;;;1.55;1.00;;;22.40;54.00;;;;;;4935124;28;45855;-82
2023/09/20 08:04:19;;;;;;;1.45;0.80;;;22.40;54.00;;;;;;4959340;28;45398;-84
2023/09/20 08:06:46;;;;;;;1.35;0.90;;;22.40;54.00;;;;;;4956944;28;45437;-81
2023/09/20 08:09:12;;;;;;;3.55;0.98;;;22.40;54.10;;;;;;4957892;28;45610;-81
2023/09/20 08:11:38;;;;;;;0.93;0.73;;;22.40;54.00;;;;;;4955705;28;45468;-82
2023/09/20 08:14:04;;;;;;;3.40;1.20;;;22.40;54.00;;;;;;4954174;28;44984;-82
2023/09/20 08:16:35;;;;;;;1.35;1.10;;;22.50;54.10;;;;;;4954755;28;45324;-81
2023/09/20 08:21:59;;;;;;;2.03;1.10;;;22.40;54.00;;;;;;4952966;28;45003;-83
2023/09/20 09:00:24;;;;;;;1.77;1.02;;;22.40;54.10;;;;;;4948265;28;47262;-42
2023/09/20 09:03:00;;;;;;;1.38;0.98;;;22.50;54.10;;;;;;4947351;28;45742;-42
2023/09/20 09:05:27;;;;;;;1.85;1.00;;;22.50;54.00;;;;;;4925235;28;45260;-44
2023/09/20 09:07:53;;;;;;;1.38;0.90;;;22.50;54.10;;;;;;4938217;28;45131;-41
2023/09/20 09:10:19;;;;;;;0.95;0.63;;;22.50;54.10;;;;;;4942785;28;45752;-41
2023/09/20 09:12:44;;;;;;;1.83;0.77;;;22.50;54.10;;;;;;4959462;28;45581;-42
2023/09/20 09:15:11;;;;;;;1.40;0.90;;;22.50;54.10;;;;;;4951366;28;45428;-41
2023/09/20 09:17:41;;;;;;;1.55;0.85;;;22.50;54.10;;;;;;4923813;28;45309;-42
2023/09/20 09:20:10;;;;;;;1.10;0.88;;;22.50;54.10;;;;;;4944856;28;45726;-44
2023/09/20 09:22:39;;;;;;;1.30;0.77;;;22.50;54.10;;;;;;4948198;28;46150;-42
2023/09/20 09:25:14;;;;;;;1.15;0.80;;;22.50;54.10;;;;;;4938228;28;45561;-41
2023/09/20 09:27:40;;;;;;;1.25;0.90;;;22.50;54.60;;;;;;4934223;28;45117;-41
2023/09/20 09:30:13;;;;;;;2.22;0.80;;;22.50;54.10;;;;;;4940878;28;45680;-45
2023/09/20 09:32:39;;;;;;;1.23;0.70;;;22.50;54.10;;;;;;4930029;28;45440;-43
2023/09/20 09:35:10;;;;;;;1.90;0.90;;;22.50;54.10;;;;;;4953701;28;45057;-45
2023/09/20 09:37:36;;;;;;;1.40;0.70;;;22.50;54.00;;;;;;4937547;28;45936;-47
2023/09/20 09:40:14;;;;;;;2.42;0.88;;;22.50;54.20;;;;;;4947802;28;46201;-47
2023/09/20 09:42:41;;;;;;;2.95;0.90;;;22.50;54.00;;;;;;4958661;28;45324;-45
2023/09/20 09:45:10;;;;;;;1.08;0.82;;;22.50;54.10;;;;;;4931957;28;44997;-46
2023/09/20 09:47:37;;;;;;;1.40;0.70;;;22.50;54.10;;;;;;4946274;28;45628;-44
2023/09/20 09:50:07;;;;;;;0.75;0.75;;;22.50;54.10;;;;;;4929466;28;45837;-45
2023/09/20 09:52:33;;;;;;;1.70;0.88;;;22.50;54.10;;;;;;4943514;28;46327;-45
2023/09/20 09:54:58;;;;;;;1.05;0.90;;;22.50;54.10;;;;;;4922617;28;45204;-45
2023/09/20 09:57:24;;;;;;;1.52;0.90;;;22.50;54.10;;;;;;4932313;28;45031;-46
2023/09/20 09:59:51;;;;;;;1.27;1.13;;;22.50;54.10;;;;;;4930308;28;45344;-44
2023/09/20 10:02:21;;;;;;;1.15;0.90;;;22.50;54.10;;;;;;4926024;28;46123;-45
2023/09/20 10:05:08;;;;;;;1.13;0.80;;;22.50;54.10;;;;;;4938468;28;45571;-45
2023/09/20 10:07:39;;;;;;;1.88;0.90;;;22.50;54.00;;;;;;4943851;28;45285;-47
2023/09/20 10:10:12;;;;;;;1.50;0.95;;;22.50;54.10;;;;;;4903265;28;45178;-45
2023/09/20 10:12:38;;;;;;;3.03;1.05;;;22.60;54.20;;;;;;4917426;28;48094;-43
2023/09/20 10:15:12;;;;;;;0.77;0.75;;;22.50;54.10;;;;;;4953038;28;45554;-46
2023/09/20 10:17:54;;;;;;;1.58;0.77;;;22.60;54.10;;;;;;4941933;28;45303;-44
2023/09/20 10:20:22;;;;;;;1.37;0.90;;;22.60;54.00;;;;;;4936541;28;45059;-44
2023/09/20 10:22:51;;;;;;;1.58;0.80;;;22.50;54.10;;;;;;4923685;28;46955;-43
2023/09/20 10:25:29;;;;;;;1.42;0.93;;;22.50;54.10;;;;;;4930338;28;45096;-43
2023/09/20 10:27:55;;;;;;;1.30;0.90;;;22.60;54.10;;;;;;4940625;28;45239;-44
2023/09/20 10:30:23;;;;;;;0.75;0.75;;;22.60;54.20;;;;;;4909401;28;45875;-46
2023/09/20 10:32:54;;;;;;;1.27;0.85;;;22.60;54.20;;;;;;4927472;28;46850;-46
2023/09/20 10:35:33;;;;;;;0.95;0.80;;;22.60;54.20;;;;;;4934220;28;45463;-44
2023/09/20 10:38:05;;;;;;;1.10;0.80;;;22.60;54.20;;;;;;4958523;28;45315;-44
2023/09/20 10:40:45;;;;;;;1.20;0.80;;;22.60;54.20;;;;;;4937843;28;44634;-44
2023/09/20 10:43:34;;;;;;;1.17;0.70;;;22.60;54.10;;;;;;4939323;28;46067;-44
2023/09/20 10:46:00;;;;;;;1.52;0.73;;;22.60;54.10;;;;;;4931458;28;45385;-45
2023/09/20 10:48:29;;;;;;;0.68;0.57;;;22.60;54.30;;;;;;4948347;28;45716;-43
2023/09/20 10:50:57;;;;;;;1.42;0.90;;;22.60;54.20;;;;;;4946181;28;46655;-44
2023/09/20 10:53:52;;;;;;;1.88;0.88;;;22.60;54.20;;;;;;4935697;28;45901;-47
2023/09/20 10:56:53;;;;;;;1.20;0.63;;;22.60;54.20;;;;;;4934242;28;45554;-47
2023/09/20 10:59:25;;;;;;;0.65;0.60;;;22.60;54.20;;;;;;4960430;28;45230;-44
2023/09/20 11:01:50;;;;;;;0.70;0.55;;;22.60;54.20;;;;;;4932103;28;46213;-44
2023/09/20 11:04:17;;;;;;;1.77;0.93;;;22.60;54.30;;;;;;4933006;28;46044;-46
2023/09/20 11:06:47;;;;;;;2.13;0.80;;;22.60;54.30;;;;;;4934901;28;45140;-44
2023/09/20 11:09:13;;;;;;;1.10;0.70;;;22.60;54.20;;;;;;4955112;28;45593;-45
2023/09/20 11:11:39;;;;;;;0.73;0.68;;;22.60;54.30;;;;;;4942236;28;45346;-45
2023/09/20 11:14:06;;;;;;;2.17;1.02;;;22.60;54.30;;;;;;4941586;28;45880;-46
2023/09/20 11:16:31;;;;;;;0.75;0.73;;;22.60;54.30;;;;;;4925456;28;45348;-43
2023/09/20 11:18:58;;;;;;;1.35;0.82;;;22.60;54.30;;;;;;4958144;28;46809;-46
2023/09/20 11:21:24;;;;;;;0.93;0.80;;;22.60;54.30;;;;;;4949538;28;47832;-45
2023/09/20 11:23:50;;;;;;;1.10;0.80;;;22.60;54.30;;;;;;4955427;28;45748;-45
2023/09/20 11:26:26;;;;;;;1.35;0.70;;;22.60;54.30;;;;;;4926536;28;46048;-45
2023/09/20 11:28:52;;;;;;;1.17;0.80;;;22.60;54.30;;;;;;4965276;28;45749;-44
2023/09/20 11:31:36;;;;;;;1.52;0.90;;;22.60;54.30;;;;;;4929889;28;45804;-47
2023/09/20 11:34:03;;;;;;;1.08;0.80;;;22.60;54.30;;;;;;4909148;28;46346;-44
2023/09/20 11:36:30;;;;;;;0.90;0.70;;;22.60;54.30;;;;;;4890649;28;45368;-44
2023/09/20 11:38:55;;;;;;;1.35;0.80;;;22.60;54.30;;;;;;4917682;28;45319;-45
2023/09/20 11:41:23;;;;;;;2.47;0.75;;;22.60;54.30;;;;;;4917793;28;45563;-45
2023/09/20 11:43:55;;;;;;;1.70;1.10;;;22.60;54.30;;;;;;4906234;28;45294;-44
2023/09/20 11:46:21;;;;;;;1.67;0.90;;;22.60;54.30;;;;;;4907601;28;44883;-44
2023/09/20 11:48:49;;;;;;;2.50;0.90;;;22.60;54.30;;;;;;4895955;28;45514;-44
2023/09/20 11:51:14;;;;;;;0.98;0.60;;;22.60;54.40;;;;;;4915160;28;45641;-46
2023/09/20 11:53:42;;;;;;;0.82;0.55;;;22.60;54.40;;;;;;4926451;28;45824;-44
2023/09/20 11:56:07;;;;;;;1.10;0.77;;;22.60;54.40;;;;;;4902386;28;45219;-45
2023/09/20 11:58:36;;;;;;;0.90;0.70;;;22.60;54.40;;;;;;4899802;28;45454;-44
2023/09/20 12:01:05;;;;;;;3.03;0.70;;;22.60;54.40;;;;;;4899104;28;45424;-44
2023/09/20 12:03:32;;;;;;;0.80;0.70;;;22.60;54.40;;;;;;4909013;28;45825;-46
2023/09/20 12:05:58;;;;;;;0.90;0.60;;;22.60;54.50;;;;;;4901144;28;45303;-46
2023/09/20 12:08:30;;;;;;;1.42;0.70;;;22.70;54.40;;;;;;4911080;28;45246;-46
2023/09/20 12:10:56;;;;;;;1.08;0.52;;;22.60;54.30;;;;;;4900220;28;45374;-45
2023/09/20 12:13:22;;;;;;;1.63;1.00;;;22.60;54.40;;;;;;4915582;28;46698;-44
2023/09/20 12:15:48;;;;;;;1.08;0.77;;;22.60;54.40;;;;;;4901087;28;45761;-44
2023/09/20 12:18:14;;;;;;;1.63;0.60;;;22.60;54.60;;;;;;4915714;28;45401;-45
2023/09/20 12:20:40;;;;;;;1.23;0.90;;;22.60;54.40;;;;;;4887393;28;45914;-47
2023/09/20 12:23:06;;;;;;;1.10;0.80;;;22.60;54.40;;;;;;4916248;28;45655;-44
2023/09/20 12:25:32;;;;;;;0.88;0.80;;;22.70;54.50;;;;;;4899757;28;45146;-47
2023/09/20 12:27:58;;;;;;;0.82;0.70;;;22.60;54.40;;;;;;4903469;28;46167;-44
2023/09/20 12:30:27;;;;;;;1.08;0.70;;;22.60;54.50;;;;;;4922741;28;45629;-46
2023/09/20 12:32:56;;;;;;;1.20;0.82;;;22.60;54.50;;;;;;4887692;28;47156;-45
2023/09/20 12:35:21;;;;;;;0.88;0.60;;;22.70;54.50;;;;;;4901202;28;45199;-46
2023/09/20 12:37:47;;;;;;;1.70;0.70;;;22.60;54.50;;;;;;4909298;28;45339;-48
2023/09/20 12:40:12;;;;;;;1.00;0.70;;;22.60;54.50;;;;;;4918409;28;45402;-48
2023/09/20 12:42:38;;;;;;;0.80;0.70;;;22.70;54.50;;;;;;4911435;28;45368;-44
2023/09/20 12:45:08;;;;;;;0.98;0.75;;;22.70;54.50;;;;;;4894685;28;45271;-46
2023/09/20 12:47:34;;;;;;;0.98;0.60;;;22.70;54.50;;;;;;4908406;28;45252;-44
2023/09/20 12:50:06;;;;;;;1.15;0.80;;;22.60;54.50;;;;;;4915719;28;45317;-45
2023/09/20 12:52:31;;;;;;;1.10;0.70;;;22.70;54.50;;;;;;4913228;28;45798;-45
2023/09/20 12:54:58;;;;;;;0.70;0.57;;;22.70;54.60;;;;;;4916411;28;45900;-45
2023/09/20 12:57:25;;;;;;;0.75;0.63;;;22.70;54.60;;;;;;4917036;28;45493;-44
2023/09/20 12:59:50;;;;;;;0.95;0.50;;;22.70;54.60;;;;;;4906911;28;45262;-47
2023/09/20 13:02:16;;;;;;;1.05;0.73;;;22.70;54.60;;;;;;4894320;28;47369;-44
2023/09/20 13:04:42;;;;;;;1.20;0.60;;;22.70;54.60;;;;;;4929535;28;45937;-45
2023/09/20 13:07:08;;;;;;;1.45;0.93;;;22.70;54.60;;;;;;4909807;28;45471;-44
2023/09/20 13:09:34;;;;;;;0.95;0.50;;;22.70;54.60;;;;;;4915470;28;45147;-46
2023/09/20 13:12:00;;;;;;;0.88;0.68;;;22.70;54.60;;;;;;4915737;28;45137;-44
2023/09/20 13:14:25;;;;;;;1.30;0.63;;;22.70;54.60;;;;;;4914887;28;45199;-47
2023/09/20 13:16:51;;;;;;;1.15;0.70;;;22.70;54.60;;;;;;4871424;28;47293;-44
2023/09/20 13:19:17;;;;;;;0.88;0.70;;;22.70;54.60;;;;;;4920338;28;45331;-45
2023/09/20 13:21:43;;;;;;;1.15;0.73;;;22.70;54.60;;;;;;4904703;28;46183;-45
2023/09/20 13:24:09;;;;;;;1.00;0.70;;;22.70;54.60;;;;;;4919010;28;45338;-45
2023/09/20 13:26:38;;;;;;;0.95;0.75;;;22.70;54.60;;;;;;4899929;28;47601;-46
2023/09/20 13:29:04;;;;;;;0.63;0.43;;;22.70;54.70;;;;;;4915199;28;45232;-44
2023/09/20 13:31:29;;;;;;;0.50;0.50;;;22.70;54.60;;;;;;4886095;28;46056;-48
2023/09/20 13:33:56;;;;;;;1.90;0.70;;;22.70;54.60;;;;;;4903305;28;45440;-45
2023/09/20 13:36:21;;;;;;;1.58;0.75;;;22.70;54.70;;;;;;4893777;28;45152;-44
2023/09/20 13:38:47;;;;;;;2.30;0.80;;;22.70;54.70;;;;;;4921917;28;44695;-45
2023/09/20 13:41:13;;;;;;;0.70;0.57;;;22.70;54.70;;;;;;4907622;28;45256;-44
2023/09/20 13:43:40;;;;;;;0.60;0.50;;;22.70;54.70;;;;;;4913650;28;44640;-45
2023/09/20 13:46:15;;;;;;;0.93;0.43;;;22.70;54.70;;;;;;4894023;28;45401;-45
2023/09/20 13:48:46;;;;;;;0.98;0.50;;;22.70;54.70;;;;;;4906625;28;45588;-46
2023/09/20 13:51:17;;;;;;;0.80;0.60;;;22.70;54.70;;;;;;4911188;28;45278;-47
2023/09/20 13:53:49;;;;;;;0.73;0.52;;;22.70;54.70;;;;;;4897269;28;45057;-45
2023/09/20 13:56:17;;;;;;;0.82;0.75;;;22.70;54.70;;;;;;4907856;28;45295;-44
2023/09/20 13:58:43;;;;;;;0.75;0.68;;;22.70;54.70;;;;;;4914022;28;44767;-44
2023/09/20 14:01:08;;;;;;;1.13;0.57;;;22.70;54.70;;;;;;4896256;28;45461;-44
2023/09/20 14:03:34;;;;;;;0.73;0.60;;;22.70;54.80;;;;;;4906798;28;44849;-44
2023/09/20 14:06:01;;;;;;;0.45;0.40;;;22.70;54.80;;;;;;4884179;28;45757;-44
2023/09/20 14:08:27;;;;;;;0.73;0.60;;;22.70;54.80;;;;;;4915437;28;45109;-45
2023/09/20 14:10:53;;;;;;;0.68;0.68;;;22.70;54.80;;;;;;4901525;28;45065;-45
2023/09/20 14:13:20;;;;;;;0.70;0.68;;;22.70;54.80;;;;;;4901362;28;45135;-44
2023/09/20 14:15:46;;;;;;;0.60;0.60;;;22.70;54.80;;;;;;4895939;28;45596;-44
2023/09/20 14:18:11;;;;;;;1.45;0.70;;;22.70;54.80;;;;;;4918320;28;45085;-45
2023/09/20 14:20:38;;;;;;;1.08;0.80;;;22.70;54.80;;;;;;4906853;28;45263;-46
2023/09/20 14:23:04;;;;;;;0.40;0.40;;;22.70;54.90;;;;;;4895410;28;45571;-44
2023/09/20 14:25:30;;;;;;;1.50;0.60;;;22.70;54.80;;;;;;4903652;28;45382;-46
2023/09/20 14:27:56;;;;;;;0.57;0.57;;;22.70;54.80;;;;;;4914827;28;45227;-44
2023/09/20 14:30:21;;;;;;;0.75;0.60;;;22.70;54.80;;;;;;4910387;28;45177;-44
2023/09/20 14:32:49;;;;;;;0.73;0.60;;;22.70;54.90;;;;;;4911083;28;45269;-44
2023/09/20 14:35:15;;;;;;;0.40;0.32;;;22.70;54.80;;;;;;4910766;28;47244;-44
2023/09/20 14:37:43;;;;;;;0.55;0.50;;;22.70;54.80;;;;;;4892790;28;45237;-45
2023/09/20 14:40:18;;;;;;;0.60;0.50;;;22.70;54.80;;;;;;4913818;28;45785;-46
2023/09/20 14:42:47;;;;;;;0.63;0.63;;;22.70;54.90;;;;;;4900896;28;45497;-44
2023/09/20 14:45:22;;;;;;;0.63;0.52;;;22.70;54.90;;;;;;4906626;28;45695;-48
2023/09/20 14:47:51;;;;;;;0.90;0.57;;;22.70;54.80;;;;;;4916554;28;45583;-45
2023/09/20 14:50:17;;;;;;;1.35;0.70;;;22.70;54.90;;;;;;4914444;28;45894;-43
2023/09/20 14:52:43;;;;;;;0.88;0.55;;;22.70;54.90;;;;;;4903941;28;45460;-44
2023/09/20 14:55:10;;;;;;;0.70;0.60;;;22.70;54.90;;;;;;4909784;28;44704;-46
2023/09/20 14:57:36;;;;;;;1.35;0.75;;;22.70;54.90;;;;;;4913817;28;45297;-44
2023/09/20 15:00:07;;;;;;;0.80;0.70;;;22.70;54.90;;;;;;4918974;28;45876;-44
2023/09/20 15:02:34;;;;;;;;;;;22.70;54.90;;;;;;4910727;28;45387;-45
2023/09/20 15:05:01;;;;;;;0.50;0.50;;;22.70;55.00;;;;;;4931052;28;45917;-43
2023/09/20 15:07:28;;;;;;;0.90;0.70;;;22.70;55.00;;;;;;4926941;28;45763;-44
2023/09/20 15:09:53;;;;;;;0.45;0.40;;;22.70;54.90;;;;;;4918337;28;46574;-45
2023/09/20 15:12:19;;;;;;;0.68;0.68;;;22.70;54.90;;;;;;4911316;28;45475;-44
2023/09/20 15:14:46;;;;;;;0.93;0.73;;;22.70;54.90;;;;;;4920570;28;45863;-46
2023/09/20 15:17:12;;;;;;;0.50;0.50;;;22.70;54.90;;;;;;4900886;28;45160;-44
2023/09/20 15:19:39;;;;;;;0.60;0.52;;;22.70;54.90;;;;;;4901739;28;46459;-45
2023/09/20 15:22:04;;;;;;;1.25;0.80;;;22.80;55.00;;;;;;4913632;28;45884;-43
2023/09/20 15:24:30;;;;;;;1.15;0.77;;;22.70;54.90;;;;;;4917161;28;45090;-45
2023/09/20 15:26:56;;;;;;;0.47;0.47;;;22.70;55.00;;;;;;4901136;28;47290;-43
2023/09/20 15:29:22;;;;;;;0.73;0.60;;;22.70;54.90;;;;;;4910075;28;45825;-42
2023/09/20 15:31:48;;;;;;;0.63;0.63;;;22.70;55.00;;;;;;4890470;28;45350;-43
2023/09/20 15:34:14;;;;;;;1.15;0.88;;;22.70;55.00;;;;;;4905252;28;44702;-44
2023/09/20 15:36:40;;;;;;;0.82;0.57;;;22.70;54.90;;;;;;4899681;28;45654;-43
2023/09/20 15:39:05;;;;;;;2.05;0.73;;;22.70;55.60;;;;;;4917491;28;45374;-43
2023/09/20 15:41:31;;;;;;;1.27;0.88;;;22.70;54.90;;;;;;4910634;28;45228;-44
2023/09/20 15:43:56;;;;;;;0.60;0.60;;;22.80;55.00;;;;;;4919709;28;45208;-43
2023/09/20 15:46:22;;;;;;;0.80;0.60;;;22.80;55.00;;;;;;4882979;28;45267;-44
2023/09/20 15:48:49;;;;;;;0.60;0.55;;;22.80;55.00;;;;;;4904190;28;46417;-43
2023/09/20 15:51:15;;;;;;;0.82;0.70;;;22.80;55.00;;;;;;4896124;28;45853;-46
2023/09/20 15:53:40;;;;;;;0.80;0.68;;;22.80;55.00;;;;;;4903575;28;45018;-43
2023/09/20 15:56:06;;;;;;;0.90;0.80;;;22.80;55.00;;;;;;4885569;28;46778;-45
2023/09/20 15:58:32;;;;;;;1.15;0.80;;;22.80;55.00;;;;;;4910861;28;45794;-44
2023/09/20 16:00:58;;;;;;;1.17;0.80;;;22.80;55.00;;;;;;4879600;28;45750;-44
2023/09/20 16:03:26;;;;;;;0.50;0.50;;;22.80;55.00;;;;;;4901120;28;44958;-44
2023/09/20 16:05:52;;;;;;;0.63;0.50;;;22.80;55.00;;;;;;4900325;28;44695;-43
2023/09/20 16:08:22;;;;;;;0.57;0.57;;;22.80;55.00;;;;;;4891972;28;45409;-43
2023/09/20 16:10:52;;;;;;;0.70;0.60;;;22.80;55.00;;;;;;4892638;28;45217;-45
2023/09/20 16:13:17;;;;;;;0.43;0.43;;;22.80;55.10;;;;;;4933628;28;45235;-43
2023/09/20 16:15:43;;;;;;;0.68;0.50;;;22.80;55.10;;;;;;4890609;28;45693;-42
2023/09/20 16:18:09;;;;;;;0.80;0.60;;;22.80;55.10;;;;;;4879159;28;45873;-45
2023/09/20 16:20:35;;;;;;;0.68;0.60;;;22.80;55.10;;;;;;4895145;28;45282;-44
2023/09/20 16:23:02;;;;;;;0.73;0.63;;;22.80;55.10;;;;;;4905850;28;45137;-44
2023/09/20 16:25:28;;;;;;;0.98;0.70;;;22.80;55.10;;;;;;4897758;28;45527;-44
2023/09/20 16:27:54;;;;;;;0.65;0.52;;;22.80;55.10;;;;;;4890638;28;45113;-45
2023/09/20 16:30:20;;;;;;;0.70;0.68;;;22.80;55.10;;;;;;4890053;28;45853;-44
2023/09/20 16:32:47;;;;;;;0.65;0.60;;;22.80;55.10;;;;;;4892894;28;47070;-43